createdAt,value
2022-12-01T00:01:58.063Z,97536.59
2022-12-01T00:05:02.414Z,97537.84
2022-12-01T00:08:09.480Z,97534.63
2022-12-01T00:11:19.596Z,97529.44
2022-12-01T00:14:25.153Z,97531.47
2022-12-01T00:17:29.393Z,97523.03
2022-12-01T00:20:33.375Z,97525.84
2022-12-01T00:23:37.526Z,97528.19
2022-12-01T00:26:41.527Z,97521.78
2022-12-01T00:29:47.250Z,97521.63
2022-12-01T00:32:53.573Z,97530.31
2022-12-01T00:35:57.562Z,97533.84
2022-12-01T00:39:03.467Z,97533.00
2022-12-01T00:42:13.089Z,97531.47
2022-12-01T00:45:17.780Z,97530.69
2022-12-01T00:48:21.824Z,97528.00
2022-12-01T00:51:25.958Z,97528.47
2022-12-01T00:54:32.519Z,97535.66
2022-12-01T00:57:36.883Z,97528.88
2022-12-01T01:00:41.061Z,97531.28
2022-12-01T01:03:45.128Z,97540.94
2022-12-01T01:06:50.207Z,97531.84
2022-12-01T01:09:54.725Z,97539.53
2022-12-01T01:12:59.742Z,97540.16
2022-12-01T01:16:03.857Z,97544.75
2022-12-01T01:19:11.508Z,97546.56
2022-12-01T01:22:15.659Z,97550.34
2022-12-01T01:25:19.699Z,97544.25
2022-12-01T01:28:27.388Z,97557.97
2022-12-01T01:31:33.596Z,97549.75
2022-12-01T01:38:09.763Z,97555.94
2022-12-01T01:41:19.000Z,97549.53
2022-12-01T01:44:25.560Z,97550.13
2022-12-01T01:47:36.408Z,97553.31
2022-12-01T01:50:41.964Z,97550.47
2022-12-01T01:53:46.715Z,97551.09
2022-12-01T01:56:53.261Z,97553.94
2022-12-01T01:59:57.596Z,97555.31
2022-12-01T02:03:01.592Z,97553.59
2022-12-01T02:06:07.248Z,97549.66
2022-12-01T02:09:13.674Z,97558.63
2022-12-01T02:12:17.952Z,97562.34
2022-12-01T02:15:23.626Z,97559.06
2022-12-01T02:18:28.248Z,97545.84
2022-12-01T02:21:32.282Z,97559.78
2022-12-01T02:24:36.764Z,97562.69
2022-12-01T02:27:40.837Z,97551.94
2022-12-01T02:30:45.059Z,97564.44
2022-12-01T02:33:52.825Z,97562.22
2022-12-01T02:37:00.876Z,97556.31
2022-12-01T02:40:06.413Z,97563.25
2022-12-01T02:43:13.233Z,97559.03
2022-12-01T02:46:17.697Z,97556.44
2022-12-01T02:49:23.048Z,97548.59
2022-12-01T02:52:28.349Z,97557.63
2022-12-01T02:55:35.974Z,97555.44
2022-12-01T02:58:42.381Z,97555.41
2022-12-01T03:01:49.241Z,97558.00
2022-12-01T03:04:56.072Z,97559.84
2022-12-01T03:08:02.157Z,97559.81
2022-12-01T03:11:06.390Z,97560.78
2022-12-01T03:14:10.314Z,97564.41
2022-12-01T03:17:15.126Z,97563.41
2022-12-01T03:20:19.275Z,97559.41
2022-12-01T03:23:23.454Z,97557.47
2022-12-01T03:26:30.441Z,97555.63
2022-12-01T03:29:34.944Z,97548.75
2022-12-01T03:32:44.020Z,97557.22
2022-12-01T03:35:52.944Z,97559.19
2022-12-01T03:38:57.068Z,97548.19
2022-12-01T03:42:05.335Z,97557.56
2022-12-01T03:45:10.969Z,97550.78
2022-12-01T03:48:15.386Z,97551.00
2022-12-01T03:51:19.210Z,97549.38
2022-12-01T03:54:24.518Z,97551.00
2022-12-01T03:57:34.861Z,97551.81
2022-12-01T04:00:39.272Z,97556.44
2022-12-01T04:03:43.363Z,97548.59
2022-12-01T04:06:47.511Z,97553.22
2022-12-01T04:09:51.673Z,97552.84
2022-12-01T04:12:56.187Z,97552.63
2022-12-01T04:16:01.090Z,97559.25
2022-12-01T04:19:05.130Z,97563.09
2022-12-01T04:22:21.709Z,97566.50
2022-12-01T04:25:25.913Z,97567.50
2022-12-01T04:28:32.884Z,97569.13
2022-12-01T04:31:39.608Z,97566.50
2022-12-01T04:35:03.420Z,97575.53
2022-12-01T04:38:27.424Z,97577.94
2022-12-01T04:41:40.848Z,97576.13
2022-12-01T04:44:46.074Z,97573.69
2022-12-01T04:47:55.829Z,97570.72
2022-12-01T04:51:01.417Z,97573.72
2022-12-01T04:54:06.207Z,97576.69
2022-12-01T04:57:10.658Z,97577.47
2022-12-01T05:00:21.987Z,97575.34
2022-12-01T05:06:57.138Z,97574.03
2022-12-01T05:10:05.444Z,97570.22
2022-12-01T05:13:10.178Z,97562.63
2022-12-01T05:16:25.477Z,97568.50
2022-12-01T05:23:05.671Z,97574.09
2022-12-01T05:26:12.119Z,97571.06
2022-12-01T05:29:16.483Z,97573.19
2022-12-01T05:32:23.323Z,97583.41
2022-12-01T05:35:31.068Z,97559.31
2022-12-01T05:38:48.563Z,97568.34
2022-12-01T05:41:58.762Z,97566.50
2022-12-01T05:45:14.842Z,97579.44
2022-12-01T05:48:20.050Z,97579.31
2022-12-01T05:55:08.323Z,97576.69
2022-12-01T05:58:12.667Z,97562.44
2022-12-01T06:01:17.553Z,97567.94
2022-12-01T06:04:29.417Z,97575.19
2022-12-01T06:07:38.962Z,97564.97
2022-12-01T06:14:10.018Z,97569.16
2022-12-01T06:17:13.976Z,97564.19
2022-12-01T06:20:29.830Z,97570.44
2022-12-01T06:23:34.756Z,97566.63
2022-12-01T06:26:41.025Z,97573.13
2022-12-01T06:36:49.058Z,97584.22
2022-12-01T06:39:55.598Z,97584.44
2022-12-01T06:46:36.263Z,97583.69
2022-12-01T06:53:19.621Z,97589.94
2022-12-01T06:56:23.862Z,97586.94
2022-12-01T06:59:30.337Z,97588.59
2022-12-01T07:02:37.691Z,97611.41
2022-12-01T07:09:17.579Z,97601.00
2022-12-01T07:12:24.237Z,97601.22
2022-12-01T07:15:32.344Z,97603.66
2022-12-01T07:18:36.382Z,97600.91
2022-12-01T07:21:40.483Z,97607.50
2022-12-01T07:24:44.795Z,97610.25
2022-12-01T07:27:49.020Z,97618.28
2022-12-01T07:30:53.107Z,97609.81
2022-12-01T07:33:57.014Z,97613.84
2022-12-01T07:37:02.547Z,97611.31
2022-12-01T07:40:06.766Z,97614.75
2022-12-01T07:43:10.902Z,97611.56
2022-12-01T07:46:20.404Z,97624.41
2022-12-01T07:49:26.464Z,97616.78
2022-12-01T07:52:30.298Z,97631.16
2022-12-01T07:55:34.235Z,97627.38
2022-12-01T07:58:39.213Z,97638.66
2022-12-01T08:01:44.937Z,97626.63
2022-12-01T08:04:49.077Z,97638.84
2022-12-01T08:07:53.328Z,97631.56
2022-12-01T08:10:57.247Z,97637.88
2022-12-01T08:14:01.591Z,97623.97
2022-12-01T08:17:05.725Z,97646.22
2022-12-01T08:20:09.747Z,97625.53
2022-12-01T08:23:13.619Z,97630.19
2022-12-01T08:26:17.229Z,97634.00
2022-12-01T08:29:21.306Z,97624.59
2022-12-01T08:32:25.204Z,97625.00
2022-12-01T08:35:29.492Z,97631.38
2022-12-01T08:38:33.213Z,97627.19
2022-12-01T08:41:37.248Z,97621.78
2022-12-01T08:44:41.388Z,97626.22
2022-12-01T08:47:45.482Z,97638.69
2022-12-01T08:50:49.565Z,97632.88
2022-12-01T08:53:53.618Z,97633.88
2022-12-01T08:56:57.891Z,97630.88
2022-12-01T09:00:03.040Z,97633.88
2022-12-01T09:03:06.860Z,97628.66
2022-12-01T09:06:10.722Z,97629.47
2022-12-01T09:09:14.563Z,97631.66
2022-12-01T09:12:18.694Z,97642.75
2022-12-01T09:15:22.735Z,97641.75
2022-12-01T09:18:26.457Z,97643.34
2022-12-01T09:21:30.488Z,97641.53
2022-12-01T09:24:34.557Z,97642.13
2022-12-01T09:27:38.475Z,97639.53
2022-12-01T09:30:42.569Z,97645.19
2022-12-01T09:33:48.606Z,97635.94
2022-12-01T09:36:52.429Z,97646.19
2022-12-01T09:39:56.504Z,97644.16
2022-12-01T09:43:00.723Z,97649.81
2022-12-01T09:46:08.917Z,97647.19
2022-12-01T09:52:42.331Z,97654.00
2022-12-01T09:55:50.243Z,97647.81
2022-12-01T10:02:40.834Z,97653.59
2022-12-01T10:09:21.420Z,97657.19
2022-12-01T10:12:25.987Z,97647.34
2022-12-01T10:22:50.247Z,97640.09
2022-12-01T10:29:32.423Z,97641.38
2022-12-01T10:32:37.977Z,97634.88
2022-12-01T10:39:14.825Z,97630.97
2022-12-01T10:46:03.347Z,97636.09
2022-12-01T10:52:55.102Z,97635.09
2022-12-01T10:56:00.708Z,97626.81
2022-12-01T10:59:05.184Z,97631.91
2022-12-01T11:02:09.077Z,97619.31
2022-12-01T11:05:13.381Z,97629.69
2022-12-01T11:08:17.112Z,97619.50
2022-12-01T11:11:24.917Z,97617.25
2022-12-01T11:14:28.967Z,97623.56
2022-12-01T11:17:33.222Z,97610.19
2022-12-01T11:20:37.404Z,97613.72
2022-12-01T11:23:45.704Z,97617.44
2022-12-01T11:26:49.913Z,97618.19
2022-12-01T11:29:53.812Z,97620.69
2022-12-01T11:32:57.741Z,97618.13
2022-12-01T11:36:01.727Z,97618.41
2022-12-01T11:39:05.806Z,97616.59
2022-12-01T11:42:12.797Z,97618.47
2022-12-01T11:45:16.943Z,97624.78
2022-12-01T11:48:20.953Z,97623.06
2022-12-01T11:51:24.869Z,97618.78
2022-12-01T11:54:28.754Z,97609.34
2022-12-01T11:57:34.613Z,97614.81
2022-12-01T12:00:39.890Z,97612.91
2022-12-01T12:03:43.917Z,97609.91
2022-12-01T12:06:47.786Z,97603.44
2022-12-01T12:09:52.127Z,97610.59
2022-12-01T12:12:56.526Z,97595.44
2022-12-01T12:16:00.333Z,97597.72
2022-12-01T12:19:04.130Z,97601.91
2022-12-01T12:22:07.954Z,97601.75
2022-12-01T12:25:11.989Z,97606.09
2022-12-01T12:28:16.268Z,97602.78
2022-12-01T12:31:20.361Z,97594.44
2022-12-01T12:34:27.972Z,97595.22
2022-12-01T12:37:32.291Z,97585.47
2022-12-01T12:40:36.478Z,97583.81
2022-12-01T12:43:41.891Z,97587.66
2022-12-01T12:46:46.159Z,97582.03
2022-12-01T12:49:50.237Z,97585.88
2022-12-01T12:52:54.159Z,97581.88
2022-12-01T12:55:58.469Z,97584.03
2022-12-01T12:59:02.630Z,97576.66
2022-12-01T13:02:06.543Z,97579.34
2022-12-01T13:05:10.256Z,97569.06
2022-12-01T13:08:14.056Z,97569.38
2022-12-01T13:11:17.860Z,97580.50
2022-12-01T13:14:21.846Z,97579.06
2022-12-01T13:17:25.774Z,97571.38
2022-12-01T13:20:29.717Z,97571.22
2022-12-01T13:23:33.868Z,97576.25
2022-12-01T13:26:37.755Z,97571.94
2022-12-01T13:29:44.193Z,97570.50
2022-12-01T13:32:48.366Z,97571.59
2022-12-01T13:36:13.741Z,97567.03
2022-12-01T13:39:16.072Z,97567.09
2022-12-01T13:42:20.519Z,97564.38
2022-12-01T13:45:24.355Z,97558.19
2022-12-01T13:48:28.333Z,97563.28
2022-12-01T13:51:32.238Z,97563.28
2022-12-01T13:54:36.293Z,97566.66
2022-12-01T13:57:40.424Z,97562.44
2022-12-01T14:00:44.197Z,97561.47
2022-12-01T14:03:50.892Z,97562.38
2022-12-01T14:06:55.719Z,97569.38
2022-12-01T14:09:59.906Z,97562.72
2022-12-01T14:13:04.076Z,97566.81
2022-12-01T14:16:08.305Z,97571.69
2022-12-01T14:19:12.433Z,97567.78
2022-12-01T14:22:16.286Z,97572.44
2022-12-01T14:25:20.605Z,97573.44
2022-12-01T14:28:24.583Z,97569.50
2022-12-01T14:31:28.603Z,97576.84
2022-12-01T14:34:32.563Z,97577.13
2022-12-01T14:37:36.556Z,97573.50
2022-12-01T14:40:40.526Z,97573.50
2022-12-01T14:43:44.901Z,97573.19
2022-12-01T14:46:49.088Z,97575.91
2022-12-01T14:49:52.967Z,97566.41
2022-12-01T14:52:57.044Z,97572.78
2022-12-01T14:56:01.212Z,97564.59
2022-12-01T14:59:05.221Z,97569.69
2022-12-01T15:02:09.474Z,97570.47
2022-12-01T15:05:13.336Z,97566.28
2022-12-01T15:08:40.790Z,97569.91
2022-12-01T15:11:41.155Z,97575.09
2022-12-01T15:14:45.336Z,97578.00
2022-12-01T15:17:49.336Z,97574.44
2022-12-01T15:20:53.113Z,97576.84
2022-12-01T15:23:57.067Z,97580.53
2022-12-01T15:27:03.942Z,97576.66
2022-12-01T15:30:08.500Z,97577.41
2022-12-01T15:33:12.486Z,97571.25
2022-12-01T15:36:16.391Z,97585.00
2022-12-01T15:39:20.445Z,97591.38
2022-12-01T15:42:24.395Z,97585.97
2022-12-01T15:45:28.792Z,97582.84
2022-12-01T15:48:32.689Z,97581.28
2022-12-01T15:51:36.522Z,97581.75
2022-12-01T15:54:40.374Z,97582.78
2022-12-01T15:57:44.548Z,97583.38
2022-12-01T16:00:48.560Z,97586.34
2022-12-01T16:03:52.530Z,97584.28
2022-12-01T16:06:56.644Z,97588.28
2022-12-01T16:10:00.872Z,97585.78
2022-12-01T16:13:05.218Z,97588.41
2022-12-01T16:16:09.265Z,97584.22
2022-12-01T16:19:13.164Z,97588.91
2022-12-01T16:22:17.090Z,97585.75
2022-12-01T16:25:21.211Z,97584.75
2022-12-01T16:28:25.295Z,97588.41
2022-12-01T16:31:29.231Z,97591.13
2022-12-01T16:34:46.010Z,97587.88
2022-12-01T16:37:50.854Z,97590.09
2022-12-01T16:40:54.954Z,97580.53
2022-12-01T16:44:26.529Z,97587.34
2022-12-01T16:47:23.143Z,97585.38
2022-12-01T16:50:26.903Z,97583.91
2022-12-01T16:53:30.866Z,97592.63
2022-12-01T16:56:34.968Z,97585.09
2022-12-01T16:59:39.108Z,97592.22
2022-12-01T17:02:43.262Z,97590.19
2022-12-01T17:05:47.022Z,97591.03
2022-12-01T17:08:51.217Z,97588.44
2022-12-01T17:11:55.454Z,97589.44
2022-12-01T17:14:59.516Z,97591.59
2022-12-01T17:18:03.476Z,97587.97
2022-12-01T17:21:07.494Z,97595.59
2022-12-01T17:24:11.557Z,97596.88
2022-12-01T17:27:15.540Z,97585.13
2022-12-01T17:30:19.550Z,97589.13
2022-12-01T17:33:23.583Z,97589.50
2022-12-01T17:36:27.740Z,97589.81
2022-12-01T17:39:32.214Z,97591.44
2022-12-01T17:42:36.342Z,97594.56
2022-12-01T17:45:40.394Z,97592.09
2022-12-01T17:48:44.451Z,97592.41
2022-12-01T17:51:48.313Z,97589.97
2022-12-01T17:54:52.716Z,97592.56
2022-12-01T17:57:56.577Z,97591.56
2022-12-01T18:01:00.380Z,97588.03
2022-12-01T18:04:04.361Z,97590.84
2022-12-01T18:07:08.456Z,97590.81
2022-12-01T18:10:12.330Z,97588.81
2022-12-01T18:13:16.231Z,97596.09
2022-12-01T18:16:20.369Z,97587.00
2022-12-01T18:19:24.571Z,97585.41
2022-12-01T18:22:28.777Z,97598.22
2022-12-01T18:25:32.706Z,97595.78
2022-12-01T18:28:39.049Z,97587.94
2022-12-01T18:31:43.033Z,97592.06
2022-12-01T18:34:47.036Z,97585.06
2022-12-01T18:37:50.754Z,97587.72
2022-12-01T18:40:54.981Z,97591.75
2022-12-01T18:43:58.901Z,97588.75
2022-12-01T18:47:02.856Z,97586.78
2022-12-01T18:50:06.920Z,97587.03
2022-12-01T18:53:11.157Z,97585.97
2022-12-01T18:56:15.484Z,97584.97
2022-12-01T18:59:19.429Z,97590.59
2022-12-01T19:02:23.582Z,97586.16
2022-12-01T19:05:27.636Z,97583.34
2022-12-01T19:08:31.620Z,97577.03
2022-12-01T19:11:35.736Z,97576.63
2022-12-01T19:14:39.745Z,97582.75
2022-12-01T19:17:43.948Z,97579.94
2022-12-01T19:20:48.227Z,97580.78
2022-12-01T19:23:52.120Z,97578.41
2022-12-01T19:26:55.777Z,97575.13
2022-12-01T19:30:00.004Z,97575.25
2022-12-01T19:33:03.950Z,97572.97
2022-12-01T19:36:08.048Z,97572.63
2022-12-01T19:39:12.048Z,97577.44
2022-12-01T19:42:15.989Z,97576.41
2022-12-01T19:45:20.076Z,97583.97
2022-12-01T19:48:24.081Z,97582.75
2022-12-01T19:51:28.071Z,97580.13
2022-12-01T19:54:32.128Z,97590.59
2022-12-01T19:57:36.199Z,97594.97
2022-12-01T20:00:40.337Z,97590.88
2022-12-01T20:03:44.338Z,97592.47
2022-12-01T20:06:48.152Z,97597.09
2022-12-01T20:09:52.265Z,97598.56
2022-12-01T20:12:56.409Z,97602.69
2022-12-01T20:16:00.504Z,97610.19
2022-12-01T20:19:04.443Z,97602.59
2022-12-01T20:22:08.515Z,97610.44
2022-12-01T20:25:12.584Z,97607.72
2022-12-01T20:28:16.712Z,97605.50
2022-12-01T20:31:21.091Z,97601.94
2022-12-01T20:34:24.756Z,97604.25
2022-12-01T20:37:28.829Z,97599.97
2022-12-01T20:40:33.027Z,97598.81
2022-12-01T20:43:37.608Z,97607.09
2022-12-01T20:46:41.615Z,97610.19
2022-12-01T20:49:45.703Z,97605.81
2022-12-01T20:52:49.791Z,97613.25
2022-12-01T20:55:53.951Z,97605.13
2022-12-01T20:58:58.137Z,97602.13
2022-12-01T21:02:02.191Z,97609.34
2022-12-01T21:05:06.298Z,97605.47
2022-12-01T21:08:10.416Z,97599.59
2022-12-01T21:11:14.257Z,97603.31
2022-12-01T21:14:17.919Z,97603.47
2022-12-01T21:17:21.820Z,97600.00
2022-12-01T21:20:26.025Z,97601.72
2022-12-01T21:23:30.273Z,97595.69
2022-12-01T21:26:34.128Z,97601.13
2022-12-01T21:29:38.161Z,97594.00
2022-12-01T21:32:44.008Z,97600.63
2022-12-01T21:35:48.211Z,97592.91
2022-12-01T21:38:52.152Z,97593.88
2022-12-01T21:41:56.220Z,97592.44
2022-12-01T21:45:00.253Z,97597.34
2022-12-01T21:48:04.205Z,97590.06
2022-12-01T21:51:08.148Z,97587.84
2022-12-01T21:54:12.298Z,97589.72
2022-12-01T21:57:16.323Z,97589.97
2022-12-01T22:00:20.289Z,97594.50
2022-12-01T22:03:24.673Z,97590.38
2022-12-01T22:06:30.067Z,97594.63
2022-12-01T22:09:34.562Z,97591.88
2022-12-01T22:12:38.794Z,97595.13
2022-12-01T22:15:42.781Z,97594.72
2022-12-01T22:18:46.796Z,97598.75
2022-12-01T22:21:50.623Z,97601.97
2022-12-01T22:24:54.760Z,97598.38
2022-12-01T22:28:01.544Z,97592.03
2022-12-01T22:31:05.796Z,97594.25
2022-12-01T22:34:09.704Z,97589.47
2022-12-01T22:37:13.653Z,97588.47
2022-12-01T22:40:17.667Z,97599.44
2022-12-01T22:43:21.877Z,97586.66
2022-12-01T22:46:25.977Z,97586.88
2022-12-01T22:49:30.083Z,97595.34
2022-12-01T22:52:34.217Z,97594.31
2022-12-01T22:55:38.365Z,97592.91
2022-12-01T22:58:42.532Z,97592.19
2022-12-01T23:01:46.098Z,97591.47
2022-12-01T23:04:50.147Z,97589.97
2022-12-01T23:07:54.482Z,97585.13
2022-12-01T23:10:58.492Z,97579.13
2022-12-01T23:14:02.322Z,97589.16
2022-12-01T23:20:28.433Z,97583.72
2022-12-01T23:23:32.423Z,97579.34
2022-12-01T23:26:36.536Z,97583.00
2022-12-01T23:29:40.678Z,97577.38
2022-12-01T23:32:44.362Z,97576.81
2022-12-01T23:35:49.211Z,97575.91
2022-12-01T23:38:53.204Z,97570.09
2022-12-01T23:41:57.223Z,97568.03
2022-12-01T23:45:01.082Z,97559.06
2022-12-01T23:48:10.848Z,97558.84
2022-12-01T23:51:15.209Z,97552.78
2022-12-01T23:54:19.526Z,97546.66
2022-12-01T23:57:23.532Z,97553.53
